Time;durP1;ratioP1;P1;durP2;ratioP2;P2;SDS_P1;SDS_P2;PMS_P1;PMS_P2;Temp;Humidity;BMP_temperature;BMP_pressure;BME280_temperature;BME280_humidity;BME280_pressure;Samples;Min_cycle;Max_cycle;Signal;HPM_P1;HPM_P2
2023/10/20 00:01:31;;;;;;;104.63;50.25;;;;;;;-145.67;100.00;66521.78;5036943;28;20059;-95
2023/10/20 00:04:03;;;;;;;103.07;49.40;;;;;;;-145.67;100.00;66521.78;5070071;28;20356;-92
2023/10/20 00:06:37;;;;;;;103.40;50.20;;;;;;;-145.67;100.00;66521.78;5034903;28;20029;-93
2023/10/20 00:09:30;;;;;;;;;;;;;;;;;;;;;
2023/10/20 00:12:31;;;;;;;109.00;49.97;;;;;;;-145.67;100.00;66521.78;5032817;28;20032;-92
2023/10/20 00:15:35;;;;;;;105.65;49.10;;;;;;;-145.67;100.00;66521.78;5069099;28;20029;-92
2023/10/20 00:18:26;;;;;;;114.10;50.58;;;;;;;-145.67;100.00;66521.78;5043903;28;20033;-93
2023/10/20 00:21:06;;;;;;;111.53;51.60;;;;;;;-145.67;100.00;66521.78;5057092;28;20033;-92
2023/10/20 00:23:32;;;;;;;102.72;50.95;;;;;;;-145.67;100.00;66521.78;5056493;28;20037;-92
2023/10/20 00:29:44;;;;;;;109.80;52.22;;;;;;;-145.67;100.00;66521.78;5083481;28;20062;-92
2023/10/20 00:32:12;;;;;;;104.25;49.90;;;;;;;-145.67;100.00;66521.78;5049643;28;20024;-92
2023/10/20 00:34:41;;;;;;;105.57;50.47;;;;;;;-145.67;100.00;66521.78;5033067;28;20063;-92
2023/10/20 00:37:23;;;;;;;;;;;;;;;;;;;;;
2023/10/20 00:39:53;;;;;;;101.68;48.67;;;;;;;-145.67;100.00;66521.78;5057665;28;20499;-92
2023/10/20 00:42:31;;;;;;;;;;;;;;;;;;;;;
2023/10/20 00:45:10;;;;;;;92.65;46.15;;;;;;;-145.67;100.00;66521.78;5051530;28;20021;-91
2023/10/20 00:51:05;;;;;;;98.15;45.65;;;;;;;-145.67;100.00;66521.78;5111505;22;20047;-91
2023/10/20 00:53:32;;;;;;;;;;;;;;;-145.67;100.00;66521.78;5068281;28;20091;-92
2023/10/20 00:55:58;;;;;;;101.07;44.65;;;;;;;-145.67;100.00;66521.78;5084237;28;19912;-93
2023/10/20 00:58:28;;;;;;;100.85;46.15;;;;;;;-145.67;100.00;66521.78;5071204;28;20119;-92
2023/10/20 01:00:54;;;;;;;91.60;44.67;;;;;;;-145.67;100.00;66521.78;5056460;28;20043;-92
2023/10/20 01:03:22;;;;;;;98.53;46.25;;;;;;;-145.67;100.00;66521.78;5035933;28;20016;-92
2023/10/20 01:05:48;;;;;;;98.75;46.25;;;;;;;-145.67;100.00;66521.78;5094837;28;20245;-93
2023/10/20 01:08:17;;;;;;;96.03;45.55;;;;;;;-145.67;100.00;66521.78;5068128;28;20005;-93
2023/10/20 01:10:52;;;;;;;91.88;46.22;;;;;;;-145.67;100.00;66521.78;5080308;28;20013;-94
2023/10/20 01:13:17;;;;;;;98.45;45.83;;;;;;;-145.67;100.00;66521.78;5065197;28;20012;-92
2023/10/20 01:20:54;;;;;;;88.72;45.42;;;;;;;-145.67;100.00;66521.78;4927302;29;20087;-94
2023/10/20 02:00:45;;;;;;;;;;;;;;;;;;;;;
2023/10/20 02:07:06;;;;;;;100.03;48.10;;;;;;;-145.67;100.00;66521.78;4810970;29;20047;-94
2023/10/20 02:12:53;;;;;;;94.80;46.70;;;;;;;-145.67;100.00;66521.78;4834026;29;20033;-91
2023/10/20 02:15:19;;;;;;;99.38;47.45;;;;;;;-145.67;100.00;66521.78;4869509;29;20041;-92
2023/10/20 02:18:20;;;;;;;;;;;;;;;;;;;;;
2023/10/20 02:21:03;;;;;;;101.38;47.90;;;;;;;-145.67;100.00;66521.78;4954260;29;20558;-92
2023/10/20 02:23:32;;;;;;;96.95;45.97;;;;;;;-145.67;100.00;66521.78;4944733;28;20202;-91
2023/10/20 02:25:59;;;;;;;95.72;45.30;;;;;;;-145.67;100.00;66521.78;4994965;28;20041;-93
2023/10/20 02:28:26;;;;;;;97.55;44.45;;;;;;;-145.67;100.00;66521.78;5024432;28;20033;-93
2023/10/20 02:30:53;;;;;;;100.75;46.90;;;;;;;-145.67;100.00;66521.78;5042010;28;20022;-95
2023/10/20 02:33:19;;;;;;;95.60;45.25;;;;;;;-145.67;100.00;66521.78;5024518;28;20112;-93
2023/10/20 02:35:55;;;;;;;101.75;47.10;;;;;;;-145.67;100.00;66521.78;5029579;28;20030;-94
2023/10/20 02:38:26;;;;;;;105.47;48.70;;;;;;;-145.67;100.00;66521.78;4992644;28;20125;-93
2023/10/20 02:40:59;;;;;;;103.95;48.13;;;;;;;-145.67;100.00;66521.78;4991854;28;20116;-94
2023/10/20 02:43:26;;;;;;;103.82;47.45;;;;;;;-145.67;100.00;66521.78;5006493;28;20033;-92
2023/10/20 02:45:53;;;;;;;99.80;45.47;;;;;;;-145.67;100.00;66521.78;5023286;28;20491;-94
2023/10/20 02:48:32;;;;;;;;;;;;;;;;;;;;;
2023/10/20 02:51:09;;;;;;;101.43;45.47;;;;;;;-145.67;100.00;66521.78;5026115;28;20121;-93
2023/10/20 02:53:35;;;;;;;99.53;45.65;;;;;;;-145.67;100.00;66521.78;5023371;28;20045;-92
2023/10/20 02:56:01;;;;;;;103.78;45.47;;;;;;;-145.67;100.00;66521.78;5006814;28;20530;-93
2023/10/20 02:58:27;;;;;;;102.28;45.38;;;;;;;-145.67;100.00;66521.78;5022777;28;20128;-92
2023/10/20 03:00:54;;;;;;;116.47;47.03;;;;;;;-145.67;100.00;66521.78;5022266;28;20440;-95
2023/10/20 03:03:20;;;;;;;96.28;44.58;;;;;;;-145.67;100.00;66521.78;5006490;28;20029;-95
2023/10/20 03:05:46;;;;;;;94.93;44.92;;;;;;;-145.67;100.00;66521.78;5006148;28;20582;-93
2023/10/20 03:08:12;;;;;;;96.90;44.60;;;;;;;-145.67;100.00;66521.78;5006435;28;20495;-93
2023/10/20 03:10:41;;;;;;;93.97;43.42;;;;;;;-145.67;100.00;66521.78;5022627;28;20494;-92
2023/10/20 03:13:13;;;;;;;103.45;45.05;;;;;;;-145.67;100.00;66521.78;5024521;28;20025;-94
2023/10/20 03:15:40;;;;;;;95.70;43.88;;;;;;;-145.67;100.00;66521.78;5006266;28;20037;-93
2023/10/20 03:18:16;;;;;;;96.53;44.95;;;;;;;-145.67;100.00;66521.78;5010025;28;20045;-92
2023/10/20 03:20:51;;;;;;;91.60;45.22;;;;;;;-145.67;100.00;66521.78;5007036;28;20060;-92
2023/10/20 03:23:23;;;;;;;95.95;44.97;;;;;;;-145.67;100.00;66521.78;5022395;28;20083;-93
2023/10/20 03:25:49;;;;;;;92.05;44.20;;;;;;;-145.67;100.00;66521.78;5008724;28;20029;-92
2023/10/20 03:28:18;;;;;;;98.05;45.47;;;;;;;-145.67;100.00;66521.78;5041877;28;20111;-93
2023/10/20 03:30:46;;;;;;;101.15;45.42;;;;;;;-145.67;100.00;66521.78;5010744;28;20048;-93
2023/10/20 03:33:16;;;;;;;96.43;44.70;;;;;;;-145.67;100.00;66521.78;5026220;28;20430;-93
2023/10/20 03:35:42;;;;;;;98.25;46.00;;;;;;;-145.67;100.00;66521.78;5028311;28;20479;-92
2023/10/20 03:38:09;;;;;;;102.32;46.35;;;;;;;-145.67;100.00;66521.78;5024902;28;20056;-93
2023/10/20 03:40:41;;;;;;;95.38;44.38;;;;;;;-145.67;100.00;66521.78;5024903;28;20017;-92
2023/10/20 03:43:11;;;;;;;103.93;48.20;;;;;;;-145.67;100.00;66521.78;5024717;28;20479;-93
2023/10/20 03:45:48;;;;;;;107.57;47.75;;;;;;;-145.67;100.00;66521.78;5023353;28;20571;-92
2023/10/20 03:48:14;;;;;;;112.47;47.70;;;;;;;-145.67;100.00;66521.78;5024270;28;20025;-91
2023/10/20 03:50:43;;;;;;;110.30;46.47;;;;;;;-145.67;100.00;66521.78;5039422;28;20156;-92
2023/10/20 03:53:12;;;;;;;98.72;43.97;;;;;;;-145.67;100.00;66521.78;5024971;28;20087;-92
2023/10/20 03:55:44;;;;;;;103.57;44.63;;;;;;;-145.67;100.00;66521.78;5006980;28;20037;-94
2023/10/20 03:58:11;;;;;;;103.72;45.78;;;;;;;-145.67;100.00;66521.78;5025411;28;20041;-93
2023/10/20 04:00:41;;;;;;;97.78;43.80;;;;;;;-145.67;100.00;66521.78;5053770;28;20028;-93
2023/10/20 04:03:08;;;;;;;94.88;43.28;;;;;;;-145.67;100.00;66521.78;5019250;28;20033;-93
2023/10/20 04:05:33;;;;;;;100.40;44.70;;;;;;;-145.67;100.00;66521.78;5034846;28;20024;-94
2023/10/20 04:07:59;;;;;;;102.45;44.80;;;;;;;-145.67;100.00;66521.78;5018683;28;20100;-94
2023/10/20 04:10:25;;;;;;;93.80;43.80;;;;;;;-145.67;100.00;66521.78;5018364;28;20033;-92
2023/10/20 04:12:52;;;;;;;98.63;45.58;;;;;;;-145.67;100.00;66521.78;5036219;28;20090;-91
2023/10/20 04:15:25;;;;;;;96.03;43.40;;;;;;;-145.67;100.00;66521.78;5026270;28;20453;-91
2023/10/20 04:17:57;;;;;;;83.43;40.25;;;;;;;-145.67;100.00;66521.78;5045367;28;20033;-92
2023/10/20 04:20:25;;;;;;;92.47;43.58;;;;;;;-145.67;100.00;66521.78;5060402;28;20056;-92
2023/10/20 04:22:51;;;;;;;84.47;40.20;;;;;;;-145.67;100.00;66521.78;5061635;28;20014;-92
2023/10/20 04:25:21;;;;;;;83.35;40.50;;;;;;;-145.67;100.00;66521.78;5022345;28;20479;-92
2023/10/20 04:27:57;;;;;;;81.85;41.17;;;;;;;-145.67;100.00;66521.78;5038689;28;20049;-91
2023/10/20 05:07:52;;;;;;;77.78;37.20;;;;;;;-145.67;100.00;66521.78;5040326;28;20025;-92
2023/10/20 05:10:28;;;;;;;75.30;39.03;;;;;;;-145.67;100.00;66521.78;5023020;28;20021;-92
2023/10/20 05:12:54;;;;;;;78.85;36.83;;;;;;;-145.67;100.00;66521.78;5044846;28;20096;-93
2023/10/20 05:15:39;;;;;;;74.13;36.58;;;;;;;-145.67;100.00;66521.78;5037041;28;20033;-94
2023/10/20 05:18:12;;;;;;;77.70;35.50;;;;;;;-145.67;100.00;66521.78;5024094;28;20025;-92
2023/10/20 05:20:38;;;;;;;78.82;35.47;;;;;;;-145.67;100.00;66521.78;5020821;28;20772;-94
2023/10/20 05:23:10;;;;;;;76.47;35.50;;;;;;;-145.67;100.00;66521.78;5023035;28;20040;-92
2023/10/20 05:25:38;;;;;;;73.95;36.55;;;;;;;-145.67;100.00;66521.78;5041044;28;20420;-92
2023/10/20 05:28:07;;;;;;;79.28;36.15;;;;;;;-145.67;100.00;66521.78;5037856;28;20064;-93
2023/10/20 05:30:33;;;;;;;69.80;33.95;;;;;;;-145.67;100.00;66521.78;5041418;28;20029;-93
2023/10/20 05:32:58;;;;;;;78.43;36.72;;;;;;;-145.67;100.00;66521.78;5039170;28;20020;-91
2023/10/20 05:35:25;;;;;;;79.88;36.50;;;;;;;-145.67;100.00;66521.78;5021610;28;20028;-93
2023/10/20 05:37:51;;;;;;;86.78;36.05;;;;;;;-145.67;100.00;66521.78;5021833;28;20034;-92
2023/10/20 05:40:36;;;;;;;;;;;;;;;;;;;;;
2023/10/20 05:43:07;;;;;;;83.45;35.90;;;;;;;-145.67;100.00;66521.78;5040675;28;20466;-91
2023/10/20 05:45:54;;;;;;;75.65;35.47;;;;;;;-145.67;100.00;66521.78;5023485;28;20475;-93
2023/10/20 05:48:26;;;;;;;76.88;36.15;;;;;;;-145.67;100.00;66521.78;5021301;28;20031;-92
2023/10/20 05:59:04;;;;;;;;;;;;;;;;;;;;;
2023/10/20 06:08:07;;;;;;;59.40;30.02;;;;;;;-145.67;100.00;66521.78;5182691;22;20053;-93
2023/10/20 06:10:33;;;;;;;53.33;29.20;;;;;;;-145.67;100.00;66521.78;5063066;28;20016;-92
2023/10/20 06:18:20;;;;;;;69.85;32.75;;;;;;;-145.67;100.00;66521.78;1442870;26;20423;-93
2023/10/20 06:20:49;;;;;;;61.65;31.52;;;;;;;-145.67;100.00;66521.78;5058474;28;20522;-92
2023/10/20 06:23:16;;;;;;;58.88;30.85;;;;;;;-145.67;100.00;66521.78;5056481;28;20179;-91
2023/10/20 06:25:44;;;;;;;67.03;32.60;;;;;;;-145.67;100.00;66521.78;5040257;28;20103;-94
2023/10/20 06:28:16;;;;;;;66.03;33.20;;;;;;;-145.67;100.00;66521.78;5039987;28;20024;-93
2023/10/20 06:30:49;;;;;;;73.45;34.22;;;;;;;-145.67;100.00;66521.78;5040253;28;20032;-91
2023/10/20 06:35:50;;;;;;;68.18;32.25;;;;;;;-145.67;100.00;66521.78;5040071;28;20033;-91
2023/10/20 06:38:44;;;;;;;67.10;33.63;;;;;;;-145.67;100.00;66521.78;5057573;28;20045;-93
2023/10/20 06:41:57;;;;;;;70.97;32.47;;;;;;;-145.67;100.00;66521.78;5025052;28;20040;-94
2023/10/20 06:44:25;;;;;;;65.82;31.88;;;;;;;-145.67;100.00;66521.78;5042463;28;20024;-93
2023/10/20 06:46:52;;;;;;;65.18;31.08;;;;;;;-145.67;100.00;66521.78;5057099;28;20028;-92
2023/10/20 06:49:20;;;;;;;67.07;31.75;;;;;;;-145.67;100.00;66521.78;5056872;28;20092;-92
2023/10/20 06:51:46;;;;;;;65.10;31.48;;;;;;;-145.67;100.00;66521.78;5056305;28;20040;-93
2023/10/20 06:54:12;;;;;;;57.40;28.67;;;;;;;-145.67;100.00;66521.78;5074351;28;20028;-92
2023/10/20 06:56:38;;;;;;;62.80;30.05;;;;;;;-145.67;100.00;66521.78;5039943;28;20036;-91
2023/10/20 06:59:04;;;;;;;56.83;28.77;;;;;;;-145.67;100.00;66521.78;5039494;28;20094;-91
2023/10/20 07:01:32;;;;;;;53.08;28.38;;;;;;;-145.67;100.00;66521.78;5039011;28;20056;-91
2023/10/20 07:03:58;;;;;;;56.78;26.75;;;;;;;-145.67;100.00;66521.78;5055896;28;20406;-91
2023/10/20 07:06:24;;;;;;;50.50;23.30;;;;;;;-145.67;100.00;66521.78;5055929;28;20103;-90
2023/10/20 07:08:50;;;;;;;42.47;22.13;;;;;;;-145.67;100.00;66521.78;5055230;28;20082;-91
2023/10/20 07:11:16;;;;;;;43.47;22.98;;;;;;;-145.67;100.00;66521.78;5039277;28;20111;-91
2023/10/20 07:13:45;;;;;;;37.20;20.88;;;;;;;-145.67;100.00;66521.78;5072185;28;20040;-91
2023/10/20 07:16:14;;;;;;;40.83;22.52;;;;;;;-145.67;100.00;66521.78;5055728;28;20024;-91
2023/10/20 07:18:42;;;;;;;42.47;21.85;;;;;;;-145.67;100.00;66521.78;5055746;28;20037;-93
2023/10/20 07:21:08;;;;;;;41.13;21.73;;;;;;;-145.67;100.00;66521.78;5072902;28;20367;-90
2023/10/20 07:23:34;;;;;;;42.92;23.20;;;;;;;-145.67;100.00;66521.78;5054791;28;20039;-91
2023/10/20 07:26:00;;;;;;;37.55;22.23;;;;;;;-145.67;100.00;66521.78;5054553;28;20021;-90
2023/10/20 07:28:26;;;;;;;43.33;23.63;;;;;;;-145.67;100.00;66521.78;5057879;28;20080;-93
2023/10/20 07:30:53;;;;;;;43.78;22.77;;;;;;;-145.67;100.00;66521.78;5041557;28;20437;-90
2023/10/20 07:33:19;;;;;;;42.47;24.08;;;;;;;-145.67;100.00;66521.78;5072704;28;20036;-91
2023/10/20 07:35:45;;;;;;;41.03;23.75;;;;;;;-145.67;100.00;66521.78;5049574;28;20043;-89
2023/10/20 07:38:14;;;;;;;38.03;22.40;;;;;;;-145.67;100.00;66521.78;5056307;28;20043;-90
2023/10/20 07:40:40;;;;;;;38.22;21.33;;;;;;;-145.67;100.00;66521.78;5093678;28;20059;-90
2023/10/20 07:43:06;;;;;;;39.50;21.15;;;;;;;-145.67;100.00;66521.78;5059253;28;20039;-91
2023/10/20 07:45:42;;;;;;;39.88;21.67;;;;;;;-145.67;100.00;66521.78;5054055;28;20084;-92
2023/10/20 07:48:09;;;;;;;36.65;19.95;;;;;;;-145.67;100.00;66521.78;5056543;28;20059;-91
2023/10/20 07:50:35;;;;;;;38.10;21.25;;;;;;;-145.67;100.00;66521.78;5040930;28;20025;-93
2023/10/20 07:53:01;;;;;;;33.60;20.52;;;;;;;-145.67;100.00;66521.78;5056291;28;20043;-91
2023/10/20 07:55:27;;;;;;;37.05;20.02;;;;;;;-145.67;100.00;66521.78;5040256;28;20029;-92
2023/10/20 07:57:55;;;;;;;35.85;21.05;;;;;;;-145.67;100.00;66521.78;5045498;28;20025;-91
2023/10/20 08:00:21;;;;;;;32.30;19.30;;;;;;;-145.67;100.00;66521.78;5054544;28;20029;-91
2023/10/20 08:02:48;;;;;;;37.20;20.77;;;;;;;-145.67;100.00;66521.78;5070220;28;20074;-91
2023/10/20 08:05:13;;;;;;;35.55;20.38;;;;;;;-145.67;100.00;66521.78;5042984;28;20191;-92
2023/10/20 08:07:40;;;;;;;36.47;21.25;;;;;;;-145.67;100.00;66521.78;5059543;28;20363;-91
2023/10/20 08:10:07;;;;;;;36.70;20.13;;;;;;;-145.67;100.00;66521.78;5042724;28;20040;-92
2023/10/20 08:12:33;;;;;;;35.33;19.67;;;;;;;-145.67;100.00;66521.78;5042694;28;20028;-91
2023/10/20 08:14:58;;;;;;;35.90;19.40;;;;;;;-145.67;100.00;66521.78;5058257;28;20474;-93
2023/10/20 08:17:24;;;;;;;30.08;18.10;;;;;;;-145.67;100.00;66521.78;5058594;28;20036;-91
2023/10/20 08:19:49;;;;;;;31.60;18.58;;;;;;;-145.67;100.00;66521.78;5058594;28;20032;-91
2023/10/20 08:22:16;;;;;;;33.83;19.15;;;;;;;-145.67;100.00;66521.78;5076483;28;20040;-92
2023/10/20 08:24:41;;;;;;;30.40;18.27;;;;;;;-145.67;100.00;66521.78;5042325;28;20051;-91
2023/10/20 08:27:07;;;;;;;31.70;19.00;;;;;;;-145.67;100.00;66521.78;5058543;28;20565;-92
2023/10/20 08:29:33;;;;;;;28.40;16.90;;;;;;;-145.67;100.00;66521.78;5060233;28;20119;-91
2023/10/20 08:31:58;;;;;;;32.40;18.33;;;;;;;-145.67;100.00;66521.78;5042096;28;20035;-91
2023/10/20 08:34:24;;;;;;;30.33;17.80;;;;;;;-145.67;100.00;66521.78;5074813;28;20024;-91
2023/10/20 08:36:49;;;;;;;24.00;14.52;;;;;;;-145.67;100.00;66521.78;5076213;28;20035;-91
2023/10/20 08:39:20;;;;;;;24.23;14.07;;;;;;;-145.67;100.00;66521.78;5041195;28;20033;-90
2023/10/20 08:41:46;;;;;;;19.48;11.95;;;;;;;-145.67;100.00;66521.78;5058841;28;20033;-92
2023/10/20 08:44:11;;;;;;;21.50;13.02;;;;;;;-145.67;100.00;66521.78;5085671;28;20017;-92
2023/10/20 08:46:41;;;;;;;19.58;12.10;;;;;;;-145.67;100.00;66521.78;5080805;28;20036;-92
2023/10/20 08:49:07;;;;;;;19.15;11.82;;;;;;;-145.67;100.00;66521.78;5080835;28;20026;-91
2023/10/20 08:51:37;;;;;;;16.08;10.10;;;;;;;-145.67;100.00;66521.78;5059875;28;20036;-91
2023/10/20 08:54:04;;;;;;;16.65;10.90;;;;;;;-145.67;100.00;66521.78;5075199;28;20057;-90
2023/10/20 08:56:29;;;;;;;16.80;10.05;;;;;;;-145.67;100.00;66521.78;5075320;28;20036;-91
2023/10/20 08:58:55;;;;;;;15.05;9.85;;;;;;;-145.67;100.00;66521.78;5074780;28;20055;-91
2023/10/20 09:01:22;;;;;;;17.80;10.68;;;;;;;-145.67;100.00;66521.78;5050721;28;20052;-90
2023/10/20 09:03:57;;;;;;;15.18;10.07;;;;;;;-145.67;100.00;66521.78;5060232;28;20119;-93
2023/10/20 09:06:26;;;;;;;16.27;9.70;;;;;;;-145.67;100.00;66521.78;5051222;28;20098;-92
2023/10/20 09:08:53;;;;;;;14.55;9.55;;;;;;;-145.67;100.00;66521.78;5062296;28;20024;-92
2023/10/20 09:11:19;;;;;;;13.30;9.57;;;;;;;-145.67;100.00;66521.78;5042250;28;20037;-92
2023/10/20 09:13:47;;;;;;;11.90;8.40;;;;;;;-145.67;100.00;66521.78;5059398;28;20033;-92
2023/10/20 09:16:14;;;;;;;12.43;8.75;;;;;;;-145.67;100.00;66521.78;5046511;28;20463;-93
2023/10/20 09:18:53;;;;;;;12.68;8.32;;;;;;;-145.67;100.00;66521.78;5046421;28;20039;-92
2023/10/20 09:21:21;;;;;;;13.52;8.98;;;;;;;-145.67;100.00;66521.78;5045168;28;20028;-92
2023/10/20 09:24:00;;;;;;;10.30;7.95;;;;;;;-145.67;100.00;66521.78;5062939;28;20465;-91
2023/10/20 09:26:28;;;;;;;12.32;9.48;;;;;;;-145.67;100.00;66521.78;5061833;28;20453;-92
2023/10/20 09:28:56;;;;;;;13.60;9.70;;;;;;;-145.67;100.00;66521.78;5043180;28;20116;-91
2023/10/20 09:31:23;;;;;;;10.77;8.07;;;;;;;-145.67;100.00;66521.78;5051148;28;20066;-93
2023/10/20 09:33:49;;;;;;;10.88;7.53;;;;;;;-145.67;100.00;66521.78;5071043;28;20032;-93
2023/10/20 09:36:15;;;;;;;11.35;8.25;;;;;;;-145.67;100.00;66521.78;5070188;28;20132;-92
2023/10/20 09:38:46;;;;;;;10.70;8.18;;;;;;;-145.67;100.00;66521.78;5043914;28;20039;-95
2023/10/20 09:41:13;;;;;;;9.85;7.28;;;;;;;-145.67;100.00;66521.78;5042786;28;20062;-93
2023/10/20 09:43:52;;;;;;;12.07;7.30;;;;;;;-145.67;100.00;66521.78;5042316;28;20047;-94
2023/10/20 09:46:45;;;;;;;10.18;7.95;;;;;;;-145.67;100.00;66521.78;5042486;28;20028;-94
2023/10/20 09:49:28;;;;;;;11.35;8.38;;;;;;;-145.67;100.00;66521.78;5042783;28;20028;-93
2023/10/20 09:51:56;;;;;;;10.52;7.43;;;;;;;-145.67;100.00;66521.78;5043483;28;20037;-94
2023/10/20 09:54:37;;;;;;;9.40;6.50;;;;;;;-145.67;100.00;66521.78;5042515;28;20047;-93
2023/10/20 10:02:01;;;;;;;12.65;6.95;;;;;;;-145.67;100.00;66521.78;4902077;29;20227;-95
2023/10/20 10:05:02;;;;;;;9.38;6.53;;;;;;;-145.67;100.00;66521.78;4876031;28;20048;-93
2023/10/20 10:07:30;;;;;;;9.18;6.18;;;;;;;-145.67;100.00;66521.78;5010580;28;20040;-93
2023/10/20 10:10:22;;;;;;;7.35;5.20;;;;;;;-145.67;100.00;66521.78;5053238;28;20036;-93
2023/10/20 10:13:41;;;;;;;8.07;4.35;;;;;;;-145.67;100.00;66521.78;5053686;28;20050;-94
2023/10/20 10:19:18;;;;;;;7.88;5.15;;;;;;;-145.67;100.00;66521.78;4996424;28;20129;-95
2023/10/20 10:22:02;;;;;;;7.85;5.03;;;;;;;-145.67;100.00;66521.78;4996736;28;20030;-93
2023/10/20 10:24:31;;;;;;;7.97;5.45;;;;;;;-145.67;100.00;66521.78;4996525;28;20052;-91
2023/10/20 10:26:57;;;;;;;6.70;5.60;;;;;;;-145.67;100.00;66521.78;5018057;28;20068;-93
2023/10/20 10:30:13;;;;;;;8.13;5.20;;;;;;;-145.67;100.00;66521.78;5032009;28;20036;-94
